sensor_id;sensor_type;location;lat;lon;timestamp;pressure;altitude;pressure_sealevel;temperature;humidity
75551;BME280;65071;53.082;18.218;2023-11-19T00:01:05;101936.79;;;0.70;86.32
75551;BME280;65071;53.082;18.218;2023-11-19T00:03:31;101937.30;;;0.66;86.27
75551;BME280;65071;53.082;18.218;2023-11-19T00:06:01;101937.34;;;0.61;86.42
75551;BME280;65071;53.082;18.218;2023-11-19T00:08:27;101938.80;;;0.56;86.11
75551;BME280;65071;53.082;18.218;2023-11-19T00:10:54;101933.75;;;0.53;86.11
75551;BME280;65071;53.082;18.218;2023-11-19T00:13:20;101931.40;;;0.50;86.04
75551;BME280;65071;53.082;18.218;2023-11-19T00:15:47;101920.58;;;0.47;85.80
75551;BME280;65071;53.082;18.218;2023-11-19T00:18:13;101914.91;;;0.42;86.16
75551;BME280;65071;53.082;18.218;2023-11-19T00:20:41;101913.16;;;0.37;86.20
75551;BME280;65071;53.082;18.218;2023-11-19T00:23:10;101914.48;;;0.31;86.30
75551;BME280;65071;53.082;18.218;2023-11-19T00:25:37;101910.83;;;0.25;86.64
75551;BME280;65071;53.082;18.218;2023-11-19T00:28:05;101909.70;;;0.17;87.16
75551;BME280;65071;53.082;18.218;2023-11-19T00:30:31;101909.62;;;0.11;87.10
75551;BME280;65071;53.082;18.218;2023-11-19T00:32:57;101915.02;;;0.03;87.95
75551;BME280;65071;53.082;18.218;2023-11-19T00:35:24;101916.13;;;-0.03;87.60
75551;BME280;65071;53.082;18.218;2023-11-19T00:37:51;101912.39;;;-0.07;87.62
75551;BME280;65071;53.082;18.218;2023-11-19T00:40:19;101907.06;;;-0.11;87.27
75551;BME280;65071;53.082;18.218;2023-11-19T00:42:49;101905.56;;;-0.13;87.28
75551;BME280;65071;53.082;18.218;2023-11-19T00:45:16;101901.45;;;-0.16;87.49
75551;BME280;65071;53.082;18.218;2023-11-19T00:47:43;101894.88;;;-0.20;87.55
75551;BME280;65071;53.082;18.218;2023-11-19T00:50:10;101893.56;;;-0.23;88.26
75551;BME280;65071;53.082;18.218;2023-11-19T00:52:37;101883.64;;;-0.27;88.00
75551;BME280;65071;53.082;18.218;2023-11-19T00:55:05;101874.05;;;-0.31;88.14
75551;BME280;65071;53.082;18.218;2023-11-19T00:57:33;101865.72;;;-0.34;88.25
75551;BME280;65071;53.082;18.218;2023-11-19T01:00:00;101862.41;;;-0.36;87.92
75551;BME280;65071;53.082;18.218;2023-11-19T01:02:26;101859.98;;;-0.37;88.14
75551;BME280;65071;53.082;18.218;2023-11-19T01:04:52;101855.11;;;-0.39;88.56
75551;BME280;65071;53.082;18.218;2023-11-19T01:07:19;101851.90;;;-0.43;88.88
75551;BME280;65071;53.082;18.218;2023-11-19T01:09:45;101849.89;;;-0.46;88.80
75551;BME280;65071;53.082;18.218;2023-11-19T01:12:11;101845.75;;;-0.49;89.32
75551;BME280;65071;53.082;18.218;2023-11-19T01:14:39;101845.00;;;-0.52;89.37
75551;BME280;65071;53.082;18.218;2023-11-19T01:17:06;101847.23;;;-0.55;89.50
75551;BME280;65071;53.082;18.218;2023-11-19T01:19:32;101845.17;;;-0.57;89.83
75551;BME280;65071;53.082;18.218;2023-11-19T01:21:58;101838.38;;;-0.59;90.18
75551;BME280;65071;53.082;18.218;2023-11-19T01:24:25;101838.84;;;-0.62;90.03
75551;BME280;65071;53.082;18.218;2023-11-19T01:26:54;101833.74;;;-0.63;89.51
75551;BME280;65071;53.082;18.218;2023-11-19T01:29:20;101826.30;;;-0.67;90.53
75551;BME280;65071;53.082;18.218;2023-11-19T01:31:47;101823.41;;;-0.70;90.37
75551;BME280;65071;53.082;18.218;2023-11-19T01:34:13;101826.33;;;-0.72;89.64
75551;BME280;65071;53.082;18.218;2023-11-19T01:36:40;101825.55;;;-0.76;91.21
75551;BME280;65071;53.082;18.218;2023-11-19T01:39:07;101828.10;;;-0.78;90.28
75551;BME280;65071;53.082;18.218;2023-11-19T01:41:36;101837.30;;;-0.78;89.97
75551;BME280;65071;53.082;18.218;2023-11-19T01:44:06;101826.91;;;-0.79;89.89
75551;BME280;65071;53.082;18.218;2023-11-19T01:46:32;101820.77;;;-0.80;89.93
75551;BME280;65071;53.082;18.218;2023-11-19T01:49:00;101814.42;;;-0.80;89.64
75551;BME280;65071;53.082;18.218;2023-11-19T01:51:27;101798.77;;;-0.82;89.48
75551;BME280;65071;53.082;18.218;2023-11-19T01:53:54;101785.46;;;-0.85;90.66
75551;BME280;65071;53.082;18.218;2023-11-19T01:56:22;101776.44;;;-0.90;91.04
75551;BME280;65071;53.082;18.218;2023-11-19T01:58:50;101765.83;;;-0.93;90.91
75551;BME280;65071;53.082;18.218;2023-11-19T02:01:17;101762.39;;;-0.96;91.08
75551;BME280;65071;53.082;18.218;2023-11-19T02:03:43;101757.30;;;-0.97;90.81
75551;BME280;65071;53.082;18.218;2023-11-19T02:06:10;101753.30;;;-0.99;91.47
75551;BME280;65071;53.082;18.218;2023-11-19T02:08:36;101746.20;;;-1.03;91.79
75551;BME280;65071;53.082;18.218;2023-11-19T02:11:05;101748.20;;;-1.04;92.16
75551;BME280;65071;53.082;18.218;2023-11-19T02:13:33;101739.59;;;-1.05;91.60
75551;BME280;65071;53.082;18.218;2023-11-19T02:16:02;101727.78;;;-1.05;91.47
75551;BME280;65071;53.082;18.218;2023-11-19T02:18:29;101722.14;;;-1.06;91.80
75551;BME280;65071;53.082;18.218;2023-11-19T02:20:59;101726.81;;;-1.08;92.38
75551;BME280;65071;53.082;18.218;2023-11-19T02:23:27;101731.45;;;-1.09;92.04
75551;BME280;65071;53.082;18.218;2023-11-19T02:26:10;101728.33;;;-1.11;92.49
75551;BME280;65071;53.082;18.218;2023-11-19T02:28:41;101724.16;;;-1.13;92.39
75551;BME280;65071;53.082;18.218;2023-11-19T02:31:10;101709.39;;;-1.15;92.22
75551;BME280;65071;53.082;18.218;2023-11-19T02:33:40;101701.69;;;-1.16;92.72
75551;BME280;65071;53.082;18.218;2023-11-19T02:36:06;101697.16;;;-1.18;92.86
75551;BME280;65071;53.082;18.218;2023-11-19T02:38:34;101695.17;;;-1.21;92.34
75551;BME280;65071;53.082;18.218;2023-11-19T02:41:03;101694.63;;;-1.21;92.40
75551;BME280;65071;53.082;18.218;2023-11-19T02:43:32;101692.86;;;-1.21;92.21
75551;BME280;65071;53.082;18.218;2023-11-19T02:46:02;101687.41;;;-1.21;91.78
75551;BME280;65071;53.082;18.218;2023-11-19T02:48:29;101680.73;;;-1.22;92.21
75551;BME280;65071;53.082;18.218;2023-11-19T02:50:57;101672.98;;;-1.23;91.79
75551;BME280;65071;53.082;18.218;2023-11-19T02:53:24;101664.89;;;-1.23;91.89
75551;BME280;65071;53.082;18.218;2023-11-19T02:55:54;101655.94;;;-1.24;91.97
75551;BME280;65071;53.082;18.218;2023-11-19T02:58:27;101648.35;;;-1.24;92.16
75551;BME280;65071;53.082;18.218;2023-11-19T03:00:55;101651.92;;;-1.26;92.75
75551;BME280;65071;53.082;18.218;2023-11-19T03:03:26;101654.02;;;-1.25;92.68
75551;BME280;65071;53.082;18.218;2023-11-19T03:06:05;101644.11;;;-1.24;92.72
75551;BME280;65071;53.082;18.218;2023-11-19T03:08:32;101633.17;;;-1.24;93.27
75551;BME280;65071;53.082;18.218;2023-11-19T03:11:00;101630.17;;;-1.24;93.13
75551;BME280;65071;53.082;18.218;2023-11-19T03:13:26;101626.59;;;-1.23;93.47
75551;BME280;65071;53.082;18.218;2023-11-19T03:15:53;101622.48;;;-1.22;93.13
75551;BME280;65071;53.082;18.218;2023-11-19T03:18:23;101623.07;;;-1.19;92.98
75551;BME280;65071;53.082;18.218;2023-11-19T03:20:49;101620.81;;;-1.15;92.74
75551;BME280;65071;53.082;18.218;2023-11-19T03:23:16;101616.09;;;-1.12;92.99
75551;BME280;65071;53.082;18.218;2023-11-19T03:25:42;101609.42;;;-1.08;93.04
75551;BME280;65071;53.082;18.218;2023-11-19T03:28:09;101605.08;;;-1.05;93.32
75551;BME280;65071;53.082;18.218;2023-11-19T03:30:37;101597.38;;;-1.02;93.41
75551;BME280;65071;53.082;18.218;2023-11-19T03:33:04;101588.02;;;-0.98;92.88
75551;BME280;65071;53.082;18.218;2023-11-19T03:35:30;101573.95;;;-0.95;92.97
75551;BME280;65071;53.082;18.218;2023-11-19T03:37:57;101560.14;;;-0.94;93.22
75551;BME280;65071;53.082;18.218;2023-11-19T03:40:24;101553.67;;;-0.91;92.78
75551;BME280;65071;53.082;18.218;2023-11-19T03:42:51;101546.23;;;-0.90;92.99
75551;BME280;65071;53.082;18.218;2023-11-19T03:45:18;101545.80;;;-0.88;92.68
75551;BME280;65071;53.082;18.218;2023-11-19T03:47:44;101543.26;;;-0.87;92.77
75551;BME280;65071;53.082;18.218;2023-11-19T03:50:11;101536.00;;;-0.86;92.94
75551;BME280;65071;53.082;18.218;2023-11-19T03:52:37;101533.21;;;-0.87;93.40
75551;BME280;65071;53.082;18.218;2023-11-19T03:55:04;101528.48;;;-0.88;93.40
75551;BME280;65071;53.082;18.218;2023-11-19T03:57:35;101523.85;;;-0.87;93.45
75551;BME280;65071;53.082;18.218;2023-11-19T04:00:02;101529.71;;;-0.84;93.26
75551;BME280;65071;53.082;18.218;2023-11-19T04:02:41;101520.05;;;-0.80;93.44
75551;BME280;65071;53.082;18.218;2023-11-19T04:05:07;101517.86;;;-0.79;93.60
75551;BME280;65071;53.082;18.218;2023-11-19T04:07:33;101512.27;;;-0.76;93.31
75551;BME280;65071;53.082;18.218;2023-11-19T04:10:01;101511.27;;;-0.73;93.20
75551;BME280;65071;53.082;18.218;2023-11-19T04:12:28;101511.15;;;-0.70;93.06
75551;BME280;65071;53.082;18.218;2023-11-19T04:14:54;101509.25;;;-0.67;93.10
75551;BME280;65071;53.082;18.218;2023-11-19T04:17:21;101506.88;;;-0.65;93.23
75551;BME280;65071;53.082;18.218;2023-11-19T04:19:49;101507.73;;;-0.61;93.00
75551;BME280;65071;53.082;18.218;2023-11-19T04:22:15;101504.23;;;-0.57;92.96
75551;BME280;65071;53.082;18.218;2023-11-19T04:24:42;101502.77;;;-0.52;92.77
75551;BME280;65071;53.082;18.218;2023-11-19T04:27:10;101500.16;;;-0.49;92.97
75551;BME280;65071;53.082;18.218;2023-11-19T04:29:38;101494.33;;;-0.44;92.88
75551;BME280;65071;53.082;18.218;2023-11-19T04:32:05;101480.63;;;-0.42;92.64
75551;BME280;65071;53.082;18.218;2023-11-19T04:34:32;101472.42;;;-0.41;92.42
75551;BME280;65071;53.082;18.218;2023-11-19T04:36:58;101469.80;;;-0.41;92.27
75551;BME280;65071;53.082;18.218;2023-11-19T04:39:28;101464.27;;;-0.40;92.39
75551;BME280;65071;53.082;18.218;2023-11-19T04:41:54;101461.26;;;-0.40;92.45
75551;BME280;65071;53.082;18.218;2023-11-19T04:44:21;101463.46;;;-0.38;92.45
75551;BME280;65071;53.082;18.218;2023-11-19T04:46:48;101460.98;;;-0.37;92.44
75551;BME280;65071;53.082;18.218;2023-11-19T04:49:15;101451.91;;;-0.36;92.56
75551;BME280;65071;53.082;18.218;2023-11-19T04:51:44;101446.55;;;-0.35;92.46
75551;BME280;65071;53.082;18.218;2023-11-19T04:54:11;101438.63;;;-0.32;92.20
75551;BME280;65071;53.082;18.218;2023-11-19T04:56:38;101433.30;;;-0.31;92.26
75551;BME280;65071;53.082;18.218;2023-11-19T04:59:06;101429.98;;;-0.28;92.09
75551;BME280;65071;53.082;18.218;2023-11-19T05:01:33;101423.22;;;-0.27;92.39
75551;BME280;65071;53.082;18.218;2023-11-19T05:04:00;101413.92;;;-0.25;92.37
75551;BME280;65071;53.082;18.218;2023-11-19T05:06:28;101411.20;;;-0.23;92.58
75551;BME280;65071;53.082;18.218;2023-11-19T05:08:56;101403.13;;;-0.25;92.83
75551;BME280;65071;53.082;18.218;2023-11-19T05:11:23;101398.58;;;-0.25;92.87
75551;BME280;65071;53.082;18.218;2023-11-19T05:13:49;101396.47;;;-0.22;92.79
75551;BME280;65071;53.082;18.218;2023-11-19T05:16:16;101396.33;;;-0.19;92.74
75551;BME280;65071;53.082;18.218;2023-11-19T05:18:44;101387.90;;;-0.16;92.76
75551;BME280;65071;53.082;18.218;2023-11-19T05:21:11;101381.09;;;-0.14;92.59
75551;BME280;65071;53.082;18.218;2023-11-19T05:23:37;101383.94;;;-0.11;92.70
75551;BME280;65071;53.082;18.218;2023-11-19T05:26:04;101380.08;;;-0.08;92.62
75551;BME280;65071;53.082;18.218;2023-11-19T05:28:31;101375.91;;;-0.05;92.62
75551;BME280;65071;53.082;18.218;2023-11-19T05:30:58;101368.10;;;-0.05;92.84
75551;BME280;65071;53.082;18.218;2023-11-19T05:33:24;101357.03;;;-0.03;93.09
75551;BME280;65071;53.082;18.218;2023-11-19T05:35:51;101348.86;;;-0.02;92.71
75551;BME280;65071;53.082;18.218;2023-11-19T05:38:17;101351.84;;;0.03;93.14
75551;BME280;65071;53.082;18.218;2023-11-19T05:40:44;101349.42;;;0.05;92.99
75551;BME280;65071;53.082;18.218;2023-11-19T05:43:11;101346.70;;;0.07;93.05
75551;BME280;65071;53.082;18.218;2023-11-19T05:45:37;101345.80;;;0.11;92.67
75551;BME280;65071;53.082;18.218;2023-11-19T05:48:05;101345.19;;;0.13;92.81
75551;BME280;65071;53.082;18.218;2023-11-19T05:50:31;101343.38;;;0.13;92.55
75551;BME280;65071;53.082;18.218;2023-11-19T05:52:58;101340.56;;;0.13;92.59
75551;BME280;65071;53.082;18.218;2023-11-19T05:55:25;101339.78;;;0.15;92.67
75551;BME280;65071;53.082;18.218;2023-11-19T05:57:53;101340.86;;;0.18;92.62
75551;BME280;65071;53.082;18.218;2023-11-19T06:00:20;101342.33;;;0.20;92.69
75551;BME280;65071;53.082;18.218;2023-11-19T06:05:13;101329.87;;;0.26;92.28
75551;BME280;65071;53.082;18.218;2023-11-19T06:07:39;101325.13;;;0.25;92.15
75551;BME280;65071;53.082;18.218;2023-11-19T06:10:07;101325.43;;;0.26;92.09
75551;BME280;65071;53.082;18.218;2023-11-19T06:12:36;101321.41;;;0.29;92.20
75551;BME280;65071;53.082;18.218;2023-11-19T06:15:05;101318.70;;;0.30;92.06
75551;BME280;65071;53.082;18.218;2023-11-19T06:17:32;101312.14;;;0.30;91.78
75551;BME280;65071;53.082;18.218;2023-11-19T06:19:59;101306.70;;;0.33;91.82
75551;BME280;65071;53.082;18.218;2023-11-19T06:22:25;101298.30;;;0.34;91.90
75551;BME280;65071;53.082;18.218;2023-11-19T06:24:52;101290.91;;;0.33;91.95
75551;BME280;65071;53.082;18.218;2023-11-19T06:27:18;101287.48;;;0.36;92.02
75551;BME280;65071;53.082;18.218;2023-11-19T06:29:46;101287.70;;;0.38;91.63
75551;BME280;65071;53.082;18.218;2023-11-19T06:32:12;101280.47;;;0.41;91.85
75551;BME280;65071;53.082;18.218;2023-11-19T06:34:39;101276.81;;;0.43;91.56
75551;BME280;65071;53.082;18.218;2023-11-19T06:37:05;101269.16;;;0.44;91.52
75551;BME280;65071;53.082;18.218;2023-11-19T06:39:31;101259.66;;;0.47;91.16
75551;BME280;65071;53.082;18.218;2023-11-19T06:41:58;101251.80;;;0.48;91.29
75551;BME280;65071;53.082;18.218;2023-11-19T06:44:25;101244.09;;;0.47;91.35
75551;BME280;65071;53.082;18.218;2023-11-19T06:46:51;101238.43;;;0.46;91.09
75551;BME280;65071;53.082;18.218;2023-11-19T06:49:17;101236.09;;;0.44;90.92
75551;BME280;65071;53.082;18.218;2023-11-19T06:51:44;101242.98;;;0.44;91.08
75551;BME280;65071;53.082;18.218;2023-11-19T06:54:12;101237.27;;;0.45;91.04
75551;BME280;65071;53.082;18.218;2023-11-19T06:56:39;101232.64;;;0.46;91.22
75551;BME280;65071;53.082;18.218;2023-11-19T06:59:05;101227.04;;;0.48;91.15
75551;BME280;65071;53.082;18.218;2023-11-19T07:01:35;101215.37;;;0.51;91.24
75551;BME280;65071;53.082;18.218;2023-11-19T07:04:03;101208.11;;;0.54;91.27
75551;BME280;65071;53.082;18.218;2023-11-19T07:06:35;101208.92;;;0.55;90.90
75551;BME280;65071;53.082;18.218;2023-11-19T07:09:02;101208.08;;;0.59;90.66
75551;BME280;65071;53.082;18.218;2023-11-19T07:11:39;101205.93;;;0.62;90.57
75551;BME280;65071;53.082;18.218;2023-11-19T07:14:07;101200.39;;;0.66;90.66
75551;BME280;65071;53.082;18.218;2023-11-19T07:16:35;101190.90;;;0.72;90.39
75551;BME280;65071;53.082;18.218;2023-11-19T07:19:06;101186.30;;;0.69;89.74
75551;BME280;65071;53.082;18.218;2023-11-19T07:21:33;101182.00;;;0.73;89.74
75551;BME280;65071;53.082;18.218;2023-11-19T07:24:00;101183.09;;;0.76;89.88
75551;BME280;65071;53.082;18.218;2023-11-19T07:26:28;101179.48;;;0.77;89.87
75551;BME280;65071;53.082;18.218;2023-11-19T07:28:55;101177.55;;;0.80;89.66
75551;BME280;65071;53.082;18.218;2023-11-19T07:31:23;101176.09;;;0.81;89.63
75551;BME280;65071;53.082;18.218;2023-11-19T07:33:50;101173.96;;;0.78;89.05
75551;BME280;65071;53.082;18.218;2023-11-19T07:36:17;101170.15;;;0.79;89.56
75551;BME280;65071;53.082;18.218;2023-11-19T07:38:43;101163.94;;;0.80;89.26
75551;BME280;65071;53.082;18.218;2023-11-19T07:41:10;101159.15;;;0.77;89.21
75551;BME280;65071;53.082;18.218;2023-11-19T07:43:44;101157.60;;;0.79;88.93
75551;BME280;65071;53.082;18.218;2023-11-19T07:46:13;101153.63;;;0.84;89.00
75551;BME280;65071;53.082;18.218;2023-11-19T07:48:40;101154.94;;;0.86;88.73
75551;BME280;65071;53.082;18.218;2023-11-19T07:51:10;101153.42;;;0.91;88.99
75551;BME280;65071;53.082;18.218;2023-11-19T07:53:38;101154.52;;;0.94;88.43
75551;BME280;65071;53.082;18.218;2023-11-19T07:56:05;101152.19;;;0.94;88.00
75551;BME280;65071;53.082;18.218;2023-11-19T07:58:32;101144.52;;;0.95;87.97
75551;BME280;65071;53.082;18.218;2023-11-19T08:00:58;101139.75;;;0.98;88.11
75551;BME280;65071;53.082;18.218;2023-11-19T08:03:25;101130.64;;;0.99;87.90
75551;BME280;65071;53.082;18.218;2023-11-19T08:05:51;101123.81;;;1.01;87.78
75551;BME280;65071;53.082;18.218;2023-11-19T08:08:18;101122.90;;;1.02;87.93
75551;BME280;65071;53.082;18.218;2023-11-19T08:10:44;101120.88;;;1.03;87.65
75551;BME280;65071;53.082;18.218;2023-11-19T08:13:11;101113.48;;;1.02;87.53
75551;BME280;65071;53.082;18.218;2023-11-19T08:15:37;101111.46;;;1.04;88.10
75551;BME280;65071;53.082;18.218;2023-11-19T08:18:04;101107.98;;;1.05;87.87
75551;BME280;65071;53.082;18.218;2023-11-19T08:20:31;101097.86;;;1.09;87.93
75551;BME280;65071;53.082;18.218;2023-11-19T08:22:57;101095.33;;;1.13;87.62
75551;BME280;65071;53.082;18.218;2023-11-19T08:25:24;101090.48;;;1.11;87.14
75551;BME280;65071;53.082;18.218;2023-11-19T08:27:50;101086.24;;;1.11;87.20
75551;BME280;65071;53.082;18.218;2023-11-19T08:30:18;101080.49;;;1.13;87.74
75551;BME280;65071;53.082;18.218;2023-11-19T08:32:45;101073.68;;;1.11;87.22
75551;BME280;65071;53.082;18.218;2023-11-19T08:35:11;101070.78;;;1.12;87.37
75551;BME280;65071;53.082;18.218;2023-11-19T08:37:38;101067.89;;;1.13;87.90
75551;BME280;65071;53.082;18.218;2023-11-19T08:40:05;101066.27;;;1.17;87.49
75551;BME280;65071;53.082;18.218;2023-11-19T08:42:33;101061.36;;;1.19;87.64
75551;BME280;65071;53.082;18.218;2023-11-19T08:45:00;101058.20;;;1.21;87.52
75551;BME280;65071;53.082;18.218;2023-11-19T08:47:26;101056.17;;;1.23;87.33
75551;BME280;65071;53.082;18.218;2023-11-19T08:49:52;101053.14;;;1.23;87.35
75551;BME280;65071;53.082;18.218;2023-11-19T08:52:20;101044.75;;;1.24;87.11
75551;BME280;65071;53.082;18.218;2023-11-19T08:54:46;101039.84;;;1.26;87.08
75551;BME280;65071;53.082;18.218;2023-11-19T08:57:13;101033.52;;;1.28;87.07
75551;BME280;65071;53.082;18.218;2023-11-19T08:59:40;101028.17;;;1.26;86.92
75551;BME280;65071;53.082;18.218;2023-11-19T09:02:06;101019.19;;;1.28;86.93
75551;BME280;65071;53.082;18.218;2023-11-19T09:04:34;101017.45;;;1.33;87.10
75551;BME280;65071;53.082;18.218;2023-11-19T09:07:00;101011.02;;;1.37;87.16
75551;BME280;65071;53.082;18.218;2023-11-19T09:09:27;101007.75;;;1.45;87.20
75551;BME280;65071;53.082;18.218;2023-11-19T09:11:54;101002.34;;;1.47;86.45
75551;BME280;65071;53.082;18.218;2023-11-19T09:14:21;101000.73;;;1.53;86.78
75551;BME280;65071;53.082;18.218;2023-11-19T09:16:52;100996.70;;;1.56;86.35
75551;BME280;65071;53.082;18.218;2023-11-19T09:19:19;100993.34;;;1.61;86.28
75551;BME280;65071;53.082;18.218;2023-11-19T09:21:45;100994.50;;;1.65;86.43
75551;BME280;65071;53.082;18.218;2023-11-19T09:24:11;100992.11;;;1.70;86.05
75551;BME280;65071;53.082;18.218;2023-11-19T09:26:38;100983.24;;;1.76;86.25
75551;BME280;65071;53.082;18.218;2023-11-19T09:29:08;100974.03;;;1.78;86.34
75551;BME280;65071;53.082;18.218;2023-11-19T09:31:34;100974.27;;;1.80;86.21
75551;BME280;65071;53.082;18.218;2023-11-19T09:34:01;100971.84;;;1.85;86.64
75551;BME280;65071;53.082;18.218;2023-11-19T09:36:28;100964.99;;;1.90;86.57
75551;BME280;65071;53.082;18.218;2023-11-19T09:38:54;100955.16;;;1.88;86.09
75551;BME280;65071;53.082;18.218;2023-11-19T09:41:20;100946.98;;;1.89;86.47
75551;BME280;65071;53.082;18.218;2023-11-19T09:43:47;100938.86;;;1.88;86.21
75551;BME280;65071;53.082;18.218;2023-11-19T09:46:15;100932.88;;;1.96;86.30
75551;BME280;65071;53.082;18.218;2023-11-19T09:48:42;100920.84;;;2.03;86.77
75551;BME280;65071;53.082;18.218;2023-11-19T09:51:10;100914.76;;;2.05;85.99
75551;BME280;65071;53.082;18.218;2023-11-19T09:53:37;100903.19;;;2.02;86.12
75551;BME280;65071;53.082;18.218;2023-11-19T09:56:06;100897.30;;;2.08;86.01
75551;BME280;65071;53.082;18.218;2023-11-19T09:58:34;100892.23;;;2.04;85.94
75551;BME280;65071;53.082;18.218;2023-11-19T10:01:01;100882.38;;;2.09;86.25
75551;BME280;65071;53.082;18.218;2023-11-19T10:03:33;100881.98;;;2.12;86.52
75551;BME280;65071;53.082;18.218;2023-11-19T10:06:01;100881.50;;;2.06;85.86
75551;BME280;65071;53.082;18.218;2023-11-19T10:10:54;100874.13;;;2.07;86.12
75551;BME280;65071;53.082;18.218;2023-11-19T10:13:26;100870.35;;;2.11;86.13
75551;BME280;65071;53.082;18.218;2023-11-19T10:15:55;100861.27;;;2.11;85.81
75551;BME280;65071;53.082;18.218;2023-11-19T10:18:26;100851.92;;;2.08;85.49
75551;BME280;65071;53.082;18.218;2023-11-19T10:20:53;100844.79;;;2.08;85.65
75551;BME280;65071;53.082;18.218;2023-11-19T10:23:21;100838.60;;;2.11;85.94
75551;BME280;65071;53.082;18.218;2023-11-19T10:25:47;100833.70;;;2.07;85.83
75551;BME280;65071;53.082;18.218;2023-11-19T10:28:18;100823.88;;;2.11;85.74
75551;BME280;65071;53.082;18.218;2023-11-19T10:30:48;100823.98;;;2.12;85.84
75551;BME280;65071;53.082;18.218;2023-11-19T10:33:15;100827.15;;;2.10;86.39
75551;BME280;65071;53.082;18.218;2023-11-19T10:35:56;100823.52;;;2.11;86.21
75551;BME280;65071;53.082;18.218;2023-11-19T10:38:24;100818.32;;;2.15;86.08
75551;BME280;65071;53.082;18.218;2023-11-19T10:40:52;100811.41;;;2.17;86.47
75551;BME280;65071;53.082;18.218;2023-11-19T10:43:19;100808.52;;;2.21;86.74
75551;BME280;65071;53.082;18.218;2023-11-19T10:45:47;100812.88;;;2.22;86.62
75551;BME280;65071;53.082;18.218;2023-11-19T10:48:14;100810.13;;;2.21;86.42
75551;BME280;65071;53.082;18.218;2023-11-19T10:50:43;100807.33;;;2.23;86.89
75551;BME280;65071;53.082;18.218;2023-11-19T10:53:11;100801.92;;;2.19;87.31
75551;BME280;65071;53.082;18.218;2023-11-19T10:55:47;100799.52;;;2.23;87.32
75551;BME280;65071;53.082;18.218;2023-11-19T10:58:15;100796.90;;;2.25;87.29
75551;BME280;65071;53.082;18.218;2023-11-19T11:00:48;100794.16;;;2.21;87.32
75551;BME280;65071;53.082;18.218;2023-11-19T11:03:22;100788.64;;;2.13;87.38
75551;BME280;65071;53.082;18.218;2023-11-19T11:05:52;100787.53;;;2.13;87.54
75551;BME280;65071;53.082;18.218;2023-11-19T11:08:20;100785.95;;;2.07;88.18
75551;BME280;65071;53.082;18.218;2023-11-19T11:10:49;100784.43;;;2.07;88.54
75551;BME280;65071;53.082;18.218;2023-11-19T11:13:18;100780.06;;;2.06;88.41
75551;BME280;65071;53.082;18.218;2023-11-19T11:15:45;100776.64;;;2.04;88.99
75551;BME280;65071;53.082;18.218;2023-11-19T11:18:13;100770.50;;;2.00;88.75
75551;BME280;65071;53.082;18.218;2023-11-19T11:20:40;100766.59;;;1.97;88.82
75551;BME280;65071;53.082;18.218;2023-11-19T11:23:32;100760.09;;;1.93;89.18
75551;BME280;65071;53.082;18.218;2023-11-19T11:28:59;100743.33;;;1.85;89.78
75551;BME280;65071;53.082;18.218;2023-11-19T11:37:32;100730.75;;;1.79;90.40
75551;BME280;65071;53.082;18.218;2023-11-19T11:40:02;100725.63;;;1.76;90.52
75551;BME280;65071;53.082;18.218;2023-11-19T11:42:36;100716.04;;;1.73;90.90
75551;BME280;65071;53.082;18.218;2023-11-19T11:45:08;100709.95;;;1.71;91.13
75551;BME280;65071;53.082;18.218;2023-11-19T11:50:18;100688.77;;;1.64;91.00
75551;BME280;65071;53.082;18.218;2023-11-19T11:58:29;100668.45;;;1.47;92.01
75551;BME280;65071;53.082;18.218;2023-11-19T12:01:02;100662.72;;;1.42;92.68
75551;BME280;65071;53.082;18.218;2023-11-19T12:03:29;100665.71;;;1.42;92.42
75551;BME280;65071;53.082;18.218;2023-11-19T12:05:58;100657.92;;;1.37;93.00
75551;BME280;65071;53.082;18.218;2023-11-19T12:08:26;100648.52;;;1.34;93.18
75551;BME280;65071;53.082;18.218;2023-11-19T12:10:55;100651.31;;;1.32;92.85
75551;BME280;65071;53.082;18.218;2023-11-19T12:13:42;100640.84;;;1.24;93.63
75551;BME280;65071;53.082;18.218;2023-11-19T12:16:09;100637.41;;;1.20;94.01
75551;BME280;65071;53.082;18.218;2023-11-19T12:18:39;100628.09;;;1.22;93.88
75551;BME280;65071;53.082;18.218;2023-11-19T12:21:05;100623.49;;;1.24;93.15
75551;BME280;65071;53.082;18.218;2023-11-19T12:23:33;100620.05;;;1.23;93.79
75551;BME280;65071;53.082;18.218;2023-11-19T12:26:00;100613.55;;;1.22;93.78
75551;BME280;65071;53.082;18.218;2023-11-19T12:28:26;100607.92;;;1.18;94.49
75551;BME280;65071;53.082;18.218;2023-11-19T12:30:54;100593.74;;;1.19;94.53
75551;BME280;65071;53.082;18.218;2023-11-19T12:33:35;100583.92;;;1.17;94.77
75551;BME280;65071;53.082;18.218;2023-11-19T12:36:02;100576.84;;;1.17;94.58
75551;BME280;65071;53.082;18.218;2023-11-19T12:38:31;100567.98;;;1.17;94.57
75551;BME280;65071;53.082;18.218;2023-11-19T12:41:03;100567.63;;;1.09;95.13
75551;BME280;65071;53.082;18.218;2023-11-19T12:43:30;100578.05;;;1.10;95.55
75551;BME280;65071;53.082;18.218;2023-11-19T12:45:57;100577.23;;;1.08;95.78
75551;BME280;65071;53.082;18.218;2023-11-19T12:48:24;100570.45;;;1.09;95.48
75551;BME280;65071;53.082;18.218;2023-11-19T12:50:55;100565.20;;;1.11;95.64
75551;BME280;65071;53.082;18.218;2023-11-19T12:53:24;100575.11;;;1.13;95.25
75551;BME280;65071;53.082;18.218;2023-11-19T12:55:51;100583.40;;;1.14;95.37
75551;BME280;65071;53.082;18.218;2023-11-19T12:58:31;100594.20;;;1.14;95.46
75551;BME280;65071;53.082;18.218;2023-11-19T13:03:35;100585.02;;;1.14;95.44
75551;BME280;65071;53.082;18.218;2023-11-19T13:08:50;100544.00;;;1.18;95.40
75551;BME280;65071;53.082;18.218;2023-11-19T13:11:32;100541.08;;;1.20;95.34
75551;BME280;65071;53.082;18.218;2023-11-19T13:14:05;100538.15;;;1.21;95.03
75551;BME280;65071;53.082;18.218;2023-11-19T13:16:36;100542.61;;;1.20;95.65